sensor_id;sensor_type;location;lat;lon;timestamp;P1;durP1;ratioP1;P2;durP2;ratioP2
58294;SDS011;45705;55.592;37.460;2022-12-26T00:01:54;6.78;;;3.30;;
58294;SDS011;45705;55.592;37.460;2022-12-26T00:04:21;7.60;;;3.63;;
58294;SDS011;45705;55.592;37.460;2022-12-26T00:06:47;9.75;;;3.90;;
58294;SDS011;45705;55.592;37.460;2022-12-26T00:09:13;7.32;;;3.67;;
58294;SDS011;45705;55.592;37.460;2022-12-26T00:11:40;7.45;;;4.00;;
58294;SDS011;45705;55.592;37.460;2022-12-26T00:14:06;7.85;;;3.50;;
58294;SDS011;45705;55.592;37.460;2022-12-26T00:16:34;7.68;;;3.50;;
58294;SDS011;45705;55.592;37.460;2022-12-26T00:19:02;5.18;;;3.10;;
58294;SDS011;45705;55.592;37.460;2022-12-26T00:21:29;7.13;;;3.55;;
58294;SDS011;45705;55.592;37.460;2022-12-26T00:23:55;6.55;;;3.33;;
58294;SDS011;45705;55.592;37.460;2022-12-26T00:26:24;7.03;;;3.50;;
58294;SDS011;45705;55.592;37.460;2022-12-26T00:28:51;7.82;;;3.80;;
58294;SDS011;45705;55.592;37.460;2022-12-26T00:31:22;7.68;;;3.90;;
58294;SDS011;45705;55.592;37.460;2022-12-26T00:33:50;6.00;;;3.75;;
58294;SDS011;45705;55.592;37.460;2022-12-26T00:36:17;6.28;;;3.90;;
58294;SDS011;45705;55.592;37.460;2022-12-26T00:41:11;5.70;;;3.50;;
58294;SDS011;45705;55.592;37.460;2022-12-26T00:43:39;6.18;;;3.75;;
58294;SDS011;45705;55.592;37.460;2022-12-26T00:46:05;5.68;;;3.42;;
58294;SDS011;45705;55.592;37.460;2022-12-26T00:48:32;6.80;;;3.50;;
58294;SDS011;45705;55.592;37.460;2022-12-26T00:50:59;6.95;;;3.75;;
58294;SDS011;45705;55.592;37.460;2022-12-26T00:53:25;7.15;;;3.40;;
58294;SDS011;45705;55.592;37.460;2022-12-26T00:55:51;6.82;;;2.95;;
58294;SDS011;45705;55.592;37.460;2022-12-26T00:58:17;5.75;;;3.22;;
58294;SDS011;45705;55.592;37.460;2022-12-26T01:00:43;7.15;;;3.47;;
58294;SDS011;45705;55.592;37.460;2022-12-26T01:03:09;6.80;;;3.40;;
58294;SDS011;45705;55.592;37.460;2022-12-26T01:05:40;7.53;;;2.95;;
58294;SDS011;45705;55.592;37.460;2022-12-26T01:08:07;8.20;;;3.30;;
58294;SDS011;45705;55.592;37.460;2022-12-26T01:10:32;6.32;;;3.65;;
58294;SDS011;45705;55.592;37.460;2022-12-26T01:12:58;7.20;;;3.78;;
58294;SDS011;45705;55.592;37.460;2022-12-26T01:15:24;9.63;;;3.75;;
58294;SDS011;45705;55.592;37.460;2022-12-26T01:17:50;7.57;;;3.97;;
58294;SDS011;45705;55.592;37.460;2022-12-26T01:20:15;5.28;;;3.30;;
58294;SDS011;45705;55.592;37.460;2022-12-26T01:22:41;7.72;;;3.80;;
58294;SDS011;45705;55.592;37.460;2022-12-26T01:25:07;6.07;;;4.03;;
58294;SDS011;45705;55.592;37.460;2022-12-26T01:27:33;7.57;;;3.80;;
58294;SDS011;45705;55.592;37.460;2022-12-26T01:29:58;6.97;;;4.10;;
58294;SDS011;45705;55.592;37.460;2022-12-26T01:32:24;7.75;;;4.45;;
58294;SDS011;45705;55.592;37.460;2022-12-26T01:34:50;9.30;;;4.13;;
58294;SDS011;45705;55.592;37.460;2022-12-26T01:39:47;8.48;;;3.55;;
58294;SDS011;45705;55.592;37.460;2022-12-26T01:42:13;8.90;;;3.95;;
58294;SDS011;45705;55.592;37.460;2022-12-26T01:47:36;6.53;;;3.85;;
58294;SDS011;45705;55.592;37.460;2022-12-26T01:50:09;9.38;;;4.25;;
58294;SDS011;45705;55.592;37.460;2022-12-26T01:53:01;7.05;;;3.97;;
58294;SDS011;45705;55.592;37.460;2022-12-26T01:55:34;8.82;;;4.15;;
58294;SDS011;45705;55.592;37.460;2022-12-26T01:58:03;7.68;;;4.47;;
58294;SDS011;45705;55.592;37.460;2022-12-26T02:00:35;11.23;;;4.70;;
58294;SDS011;45705;55.592;37.460;2022-12-26T02:03:02;10.27;;;5.13;;
58294;SDS011;45705;55.592;37.460;2022-12-26T02:05:48;9.40;;;5.60;;
58294;SDS011;45705;55.592;37.460;2022-12-26T02:08:15;12.60;;;6.65;;
58294;SDS011;45705;55.592;37.460;2022-12-26T02:10:50;13.70;;;6.50;;
58294;SDS011;45705;55.592;37.460;2022-12-26T02:15:56;7.82;;;4.53;;
58294;SDS011;45705;55.592;37.460;2022-12-26T02:18:22;9.63;;;4.85;;
58294;SDS011;45705;55.592;37.460;2022-12-26T02:20:53;8.63;;;4.85;;
58294;SDS011;45705;55.592;37.460;2022-12-26T02:26:47;9.20;;;4.40;;
58294;SDS011;45705;55.592;37.460;2022-12-26T02:45:41;11.15;;;4.45;;
58294;SDS011;45705;55.592;37.460;2022-12-26T02:48:35;8.52;;;4.55;;
58294;SDS011;45705;55.592;37.460;2022-12-26T02:54:39;8.00;;;4.30;;
58294;SDS011;45705;55.592;37.460;2022-12-26T03:00:37;6.93;;;3.83;;
58294;SDS011;45705;55.592;37.460;2022-12-26T03:03:25;9.65;;;4.60;;
58294;SDS011;45705;55.592;37.460;2022-12-26T03:09:16;8.70;;;4.47;;
58294;SDS011;45705;55.592;37.460;2022-12-26T03:12:08;8.68;;;4.60;;
58294;SDS011;45705;55.592;37.460;2022-12-26T03:15:02;10.02;;;5.18;;
58294;SDS011;45705;55.592;37.460;2022-12-26T03:25:09;11.25;;;5.60;;
58294;SDS011;45705;55.592;37.460;2022-12-26T03:27:57;8.07;;;4.78;;
58294;SDS011;45705;55.592;37.460;2022-12-26T03:30:23;10.00;;;5.63;;
58294;SDS011;45705;55.592;37.460;2022-12-26T03:33:08;8.85;;;5.00;;
58294;SDS011;45705;55.592;37.460;2022-12-26T03:35:54;10.27;;;5.65;;
58294;SDS011;45705;55.592;37.460;2022-12-26T03:38:21;10.98;;;5.40;;
58294;SDS011;45705;55.592;37.460;2022-12-26T03:41:00;11.57;;;5.75;;
58294;SDS011;45705;55.592;37.460;2022-12-26T03:44:05;10.02;;;5.82;;
58294;SDS011;45705;55.592;37.460;2022-12-26T03:49:46;9.15;;;5.60;;
58294;SDS011;45705;55.592;37.460;2022-12-26T03:52:59;10.43;;;5.72;;
58294;SDS011;45705;55.592;37.460;2022-12-26T03:55:54;14.55;;;6.10;;
58294;SDS011;45705;55.592;37.460;2022-12-26T03:58:56;11.27;;;6.07;;
58294;SDS011;45705;55.592;37.460;2022-12-26T04:01:54;15.57;;;6.00;;
58294;SDS011;45705;55.592;37.460;2022-12-26T04:04:43;10.77;;;5.40;;
58294;SDS011;45705;55.592;37.460;2022-12-26T04:07:31;12.23;;;6.10;;
58294;SDS011;45705;55.592;37.460;2022-12-26T04:13:12;9.98;;;6.10;;
58294;SDS011;45705;55.592;37.460;2022-12-26T04:16:03;10.60;;;6.10;;
58294;SDS011;45705;55.592;37.460;2022-12-26T04:19:16;12.60;;;6.13;;
58294;SDS011;45705;55.592;37.460;2022-12-26T04:22:06;10.07;;;5.93;;
58294;SDS011;45705;55.592;37.460;2022-12-26T04:25:06;12.18;;;6.25;;
58294;SDS011;45705;55.592;37.460;2022-12-26T04:27:55;14.00;;;6.82;;
58294;SDS011;45705;55.592;37.460;2022-12-26T04:30:39;13.40;;;6.68;;
58294;SDS011;45705;55.592;37.460;2022-12-26T04:33:34;11.60;;;6.47;;
58294;SDS011;45705;55.592;37.460;2022-12-26T04:36:28;13.52;;;7.00;;
58294;SDS011;45705;55.592;37.460;2022-12-26T04:39:17;14.50;;;6.43;;
58294;SDS011;45705;55.592;37.460;2022-12-26T04:42:06;11.57;;;5.65;;
58294;SDS011;45705;55.592;37.460;2022-12-26T04:44:52;9.75;;;6.35;;
58294;SDS011;45705;55.592;37.460;2022-12-26T04:47:19;8.10;;;5.07;;
58294;SDS011;45705;55.592;37.460;2022-12-26T04:49:45;10.27;;;6.43;;
58294;SDS011;45705;55.592;37.460;2022-12-26T04:52:30;9.20;;;6.63;;
58294;SDS011;45705;55.592;37.460;2022-12-26T04:55:14;12.25;;;6.68;;
58294;SDS011;45705;55.592;37.460;2022-12-26T04:57:41;13.52;;;7.05;;
58294;SDS011;45705;55.592;37.460;2022-12-26T05:00:06;10.73;;;6.20;;
58294;SDS011;45705;55.592;37.460;2022-12-26T05:02:33;13.38;;;7.03;;
58294;SDS011;45705;55.592;37.460;2022-12-26T05:05:17;10.65;;;6.50;;
58294;SDS011;45705;55.592;37.460;2022-12-26T05:08:01;9.10;;;5.88;;
58294;SDS011;45705;55.592;37.460;2022-12-26T05:10:46;10.45;;;5.28;;
58294;SDS011;45705;55.592;37.460;2022-12-26T05:13:11;8.85;;;5.38;;
58294;SDS011;45705;55.592;37.460;2022-12-26T05:15:37;8.90;;;5.70;;
58294;SDS011;45705;55.592;37.460;2022-12-26T05:18:22;8.65;;;5.88;;
58294;SDS011;45705;55.592;37.460;2022-12-26T05:21:08;11.98;;;5.97;;
58294;SDS011;45705;55.592;37.460;2022-12-26T05:24:01;11.57;;;6.15;;
58294;SDS011;45705;55.592;37.460;2022-12-26T05:26:46;11.27;;;5.97;;
58294;SDS011;45705;55.592;37.460;2022-12-26T05:29:30;12.20;;;7.07;;
58294;SDS011;45705;55.592;37.460;2022-12-26T05:31:56;10.05;;;6.15;;
58294;SDS011;45705;55.592;37.460;2022-12-26T05:34:22;10.35;;;5.70;;
58294;SDS011;45705;55.592;37.460;2022-12-26T05:36:48;9.10;;;5.32;;
58294;SDS011;45705;55.592;37.460;2022-12-26T05:39:17;8.73;;;4.88;;
58294;SDS011;45705;55.592;37.460;2022-12-26T05:41:43;6.50;;;5.15;;
58294;SDS011;45705;55.592;37.460;2022-12-26T05:44:09;7.40;;;4.75;;
58294;SDS011;45705;55.592;37.460;2022-12-26T05:46:35;9.05;;;5.03;;
58294;SDS011;45705;55.592;37.460;2022-12-26T05:49:03;12.18;;;6.40;;
58294;SDS011;45705;55.592;37.460;2022-12-26T05:51:29;7.75;;;5.38;;
58294;SDS011;45705;55.592;37.460;2022-12-26T05:53:55;13.07;;;5.95;;
58294;SDS011;45705;55.592;37.460;2022-12-26T05:56:21;7.32;;;5.03;;
58294;SDS011;45705;55.592;37.460;2022-12-26T05:58:47;10.70;;;6.60;;
58294;SDS011;45705;55.592;37.460;2022-12-26T06:01:24;10.38;;;6.55;;
58294;SDS011;45705;55.592;37.460;2022-12-26T06:03:52;10.63;;;6.25;;
58294;SDS011;45705;55.592;37.460;2022-12-26T06:06:21;9.40;;;6.03;;
58294;SDS011;45705;55.592;37.460;2022-12-26T06:08:48;9.88;;;6.60;;
58294;SDS011;45705;55.592;37.460;2022-12-26T06:11:15;9.23;;;5.93;;
58294;SDS011;45705;55.592;37.460;2022-12-26T06:13:41;10.50;;;6.65;;
58294;SDS011;45705;55.592;37.460;2022-12-26T06:16:09;9.43;;;6.75;;
58294;SDS011;45705;55.592;37.460;2022-12-26T06:18:37;7.88;;;5.93;;
58294;SDS011;45705;55.592;37.460;2022-12-26T06:21:08;9.63;;;5.70;;
58294;SDS011;45705;55.592;37.460;2022-12-26T06:23:35;8.75;;;5.85;;
58294;SDS011;45705;55.592;37.460;2022-12-26T06:26:02;11.55;;;5.80;;
58294;SDS011;45705;55.592;37.460;2022-12-26T06:28:28;12.48;;;5.55;;
58294;SDS011;45705;55.592;37.460;2022-12-26T06:30:59;8.98;;;5.80;;
58294;SDS011;45705;55.592;37.460;2022-12-26T06:33:26;10.30;;;6.22;;
58294;SDS011;45705;55.592;37.460;2022-12-26T06:35:52;10.73;;;5.65;;
58294;SDS011;45705;55.592;37.460;2022-12-26T06:38:17;6.63;;;4.43;;
58294;SDS011;45705;55.592;37.460;2022-12-26T06:40:43;7.28;;;4.72;;
58294;SDS011;45705;55.592;37.460;2022-12-26T06:43:09;8.10;;;4.50;;
58294;SDS011;45705;55.592;37.460;2022-12-26T06:45:34;9.07;;;4.75;;
58294;SDS011;45705;55.592;37.460;2022-12-26T06:48:00;7.43;;;4.93;;
58294;SDS011;45705;55.592;37.460;2022-12-26T06:50:27;7.80;;;5.03;;
58294;SDS011;45705;55.592;37.460;2022-12-26T06:52:53;9.45;;;5.13;;
58294;SDS011;45705;55.592;37.460;2022-12-26T06:55:18;10.77;;;5.45;;
58294;SDS011;45705;55.592;37.460;2022-12-26T06:57:44;9.68;;;5.70;;
58294;SDS011;45705;55.592;37.460;2022-12-26T07:00:10;7.50;;;4.60;;
58294;SDS011;45705;55.592;37.460;2022-12-26T07:02:36;11.77;;;6.00;;
58294;SDS011;45705;55.592;37.460;2022-12-26T07:05:02;6.97;;;5.20;;
58294;SDS011;45705;55.592;37.460;2022-12-26T07:07:28;9.10;;;5.05;;
58294;SDS011;45705;55.592;37.460;2022-12-26T07:09:55;7.88;;;5.20;;
58294;SDS011;45705;55.592;37.460;2022-12-26T07:12:21;9.07;;;5.32;;
58294;SDS011;45705;55.592;37.460;2022-12-26T07:14:47;7.70;;;5.03;;
58294;SDS011;45705;55.592;37.460;2022-12-26T07:17:13;12.10;;;5.38;;
58294;SDS011;45705;55.592;37.460;2022-12-26T07:19:38;8.57;;;5.95;;
58294;SDS011;45705;55.592;37.460;2022-12-26T07:22:04;7.75;;;5.97;;
58294;SDS011;45705;55.592;37.460;2022-12-26T07:24:30;7.50;;;5.55;;
58294;SDS011;45705;55.592;37.460;2022-12-26T07:26:56;8.85;;;5.75;;
58294;SDS011;45705;55.592;37.460;2022-12-26T07:29:21;10.82;;;5.43;;
58294;SDS011;45705;55.592;37.460;2022-12-26T07:31:47;11.32;;;4.68;;
58294;SDS011;45705;55.592;37.460;2022-12-26T07:34:13;8.38;;;4.30;;
58294;SDS011;45705;55.592;37.460;2022-12-26T07:36:40;6.15;;;4.70;;
58294;SDS011;45705;55.592;37.460;2022-12-26T07:39:05;10.77;;;5.38;;
58294;SDS011;45705;55.592;37.460;2022-12-26T07:41:33;11.02;;;5.35;;
58294;SDS011;45705;55.592;37.460;2022-12-26T07:44:17;12.38;;;5.50;;
58294;SDS011;45705;55.592;37.460;2022-12-26T07:46:43;6.95;;;4.78;;
58294;SDS011;45705;55.592;37.460;2022-12-26T07:49:11;6.88;;;4.57;;
58294;SDS011;45705;55.592;37.460;2022-12-26T07:51:37;8.85;;;5.03;;
58294;SDS011;45705;55.592;37.460;2022-12-26T07:54:03;8.05;;;4.60;;
58294;SDS011;45705;55.592;37.460;2022-12-26T07:56:32;13.65;;;5.40;;
58294;SDS011;45705;55.592;37.460;2022-12-26T07:58:58;7.40;;;4.50;;
58294;SDS011;45705;55.592;37.460;2022-12-26T08:01:24;6.57;;;5.03;;
58294;SDS011;45705;55.592;37.460;2022-12-26T08:03:50;7.78;;;5.47;;
58294;SDS011;45705;55.592;37.460;2022-12-26T08:06:16;6.22;;;4.85;;
58294;SDS011;45705;55.592;37.460;2022-12-26T08:08:43;10.00;;;5.13;;
58294;SDS011;45705;55.592;37.460;2022-12-26T08:11:12;13.18;;;6.03;;
58294;SDS011;45705;55.592;37.460;2022-12-26T08:13:41;14.10;;;6.47;;
58294;SDS011;45705;55.592;37.460;2022-12-26T08:16:07;7.88;;;5.72;;
58294;SDS011;45705;55.592;37.460;2022-12-26T08:18:35;9.98;;;6.05;;
58294;SDS011;45705;55.592;37.460;2022-12-26T08:21:01;10.68;;;6.45;;
58294;SDS011;45705;55.592;37.460;2022-12-26T08:23:27;12.95;;;6.55;;
58294;SDS011;45705;55.592;37.460;2022-12-26T08:25:53;11.15;;;5.97;;
58294;SDS011;45705;55.592;37.460;2022-12-26T08:28:19;12.00;;;7.20;;
58294;SDS011;45705;55.592;37.460;2022-12-26T08:30:44;12.68;;;7.30;;
58294;SDS011;45705;55.592;37.460;2022-12-26T08:33:11;10.75;;;6.53;;
58294;SDS011;45705;55.592;37.460;2022-12-26T08:35:37;9.23;;;6.18;;
58294;SDS011;45705;55.592;37.460;2022-12-26T08:38:04;10.85;;;6.28;;
58294;SDS011;45705;55.592;37.460;2022-12-26T08:40:30;10.95;;;6.00;;
58294;SDS011;45705;55.592;37.460;2022-12-26T08:42:56;10.65;;;6.50;;
58294;SDS011;45705;55.592;37.460;2022-12-26T08:45:22;12.88;;;7.05;;
58294;SDS011;45705;55.592;37.460;2022-12-26T08:47:48;13.05;;;5.95;;
58294;SDS011;45705;55.592;37.460;2022-12-26T08:50:14;10.25;;;6.15;;
58294;SDS011;45705;55.592;37.460;2022-12-26T08:52:40;10.20;;;6.22;;
58294;SDS011;45705;55.592;37.460;2022-12-26T08:55:06;13.65;;;5.90;;
58294;SDS011;45705;55.592;37.460;2022-12-26T08:57:32;11.77;;;6.15;;
58294;SDS011;45705;55.592;37.460;2022-12-26T08:59:58;11.15;;;6.72;;
58294;SDS011;45705;55.592;37.460;2022-12-26T09:02:24;14.27;;;7.13;;
58294;SDS011;45705;55.592;37.460;2022-12-26T09:04:51;8.75;;;6.00;;
58294;SDS011;45705;55.592;37.460;2022-12-26T09:07:17;10.23;;;5.68;;
58294;SDS011;45705;55.592;37.460;2022-12-26T09:09:43;8.43;;;5.22;;
58294;SDS011;45705;55.592;37.460;2022-12-26T09:12:09;9.40;;;5.63;;
58294;SDS011;45705;55.592;37.460;2022-12-26T09:14:35;7.65;;;5.50;;
58294;SDS011;45705;55.592;37.460;2022-12-26T09:17:01;6.13;;;4.82;;
58294;SDS011;45705;55.592;37.460;2022-12-26T09:19:27;6.05;;;4.28;;
58294;SDS011;45705;55.592;37.460;2022-12-26T09:21:56;9.05;;;5.20;;
58294;SDS011;45705;55.592;37.460;2022-12-26T09:24:41;7.63;;;5.70;;
58294;SDS011;45705;55.592;37.460;2022-12-26T09:27:07;8.32;;;5.90;;
58294;SDS011;45705;55.592;37.460;2022-12-26T09:29:33;9.07;;;5.95;;
58294;SDS011;45705;55.592;37.460;2022-12-26T09:31:59;9.90;;;5.63;;
58294;SDS011;45705;55.592;37.460;2022-12-26T09:34:25;12.43;;;6.30;;
58294;SDS011;45705;55.592;37.460;2022-12-26T09:36:50;11.50;;;6.05;;
58294;SDS011;45705;55.592;37.460;2022-12-26T09:39:16;15.85;;;5.30;;
58294;SDS011;45705;55.592;37.460;2022-12-26T10:01:13;8.88;;;4.60;;
58294;SDS011;45705;55.592;37.460;2022-12-26T10:03:40;9.50;;;5.60;;
58294;SDS011;45705;55.592;37.460;2022-12-26T10:06:17;10.43;;;6.35;;
58294;SDS011;45705;55.592;37.460;2022-12-26T10:08:48;9.23;;;5.72;;
58294;SDS011;45705;55.592;37.460;2022-12-26T10:17:10;9.47;;;6.13;;
58294;SDS011;45705;55.592;37.460;2022-12-26T10:25:46;8.77;;;5.65;;
58294;SDS011;45705;55.592;37.460;2022-12-26T10:28:17;11.90;;;6.40;;
58294;SDS011;45705;55.592;37.460;2022-12-26T10:30:59;11.38;;;5.18;;
58294;SDS011;45705;55.592;37.460;2022-12-26T10:33:39;11.95;;;5.68;;
58294;SDS011;45705;55.592;37.460;2022-12-26T10:36:20;9.23;;;5.95;;
58294;SDS011;45705;55.592;37.460;2022-12-26T10:39:12;18.02;;;6.57;;
58294;SDS011;45705;55.592;37.460;2022-12-26T10:42:02;15.20;;;6.18;;
58294;SDS011;45705;55.592;37.460;2022-12-26T10:44:36;10.13;;;5.95;;
58294;SDS011;45705;55.592;37.460;2022-12-26T10:49:33;10.85;;;6.95;;
58294;SDS011;45705;55.592;37.460;2022-12-26T10:52:00;11.25;;;5.85;;
58294;SDS011;45705;55.592;37.460;2022-12-26T10:54:27;8.43;;;6.05;;
58294;SDS011;45705;55.592;37.460;2022-12-26T10:56:54;11.18;;;6.85;;
58294;SDS011;45705;55.592;37.460;2022-12-26T10:59:25;12.95;;;6.28;;
58294;SDS011;45705;55.592;37.460;2022-12-26T11:02:14;11.68;;;6.63;;
58294;SDS011;45705;55.592;37.460;2022-12-26T11:05:29;10.73;;;6.03;;
58294;SDS011;45705;55.592;37.460;2022-12-26T11:07:56;12.50;;;6.53;;
58294;SDS011;45705;55.592;37.460;2022-12-26T11:10:39;11.35;;;6.05;;
58294;SDS011;45705;55.592;37.460;2022-12-26T11:13:16;9.65;;;6.45;;
58294;SDS011;45705;55.592;37.460;2022-12-26T11:15:48;9.40;;;6.15;;
58294;SDS011;45705;55.592;37.460;2022-12-26T11:26:32;17.55;;;7.93;;
58294;SDS011;45705;55.592;37.460;2022-12-26T11:31:30;17.13;;;6.85;;
58294;SDS011;45705;55.592;37.460;2022-12-26T11:33:57;10.80;;;6.65;;
58294;SDS011;45705;55.592;37.460;2022-12-26T11:36:26;10.50;;;5.17;;
58294;SDS011;45705;55.592;37.460;2022-12-26T11:38:57;14.85;;;7.80;;
58294;SDS011;45705;55.592;37.460;2022-12-26T11:46:36;11.43;;;6.13;;
58294;SDS011;45705;55.592;37.460;2022-12-26T11:51:54;23.67;;;10.65;;
58294;SDS011;45705;55.592;37.460;2022-12-26T11:57:02;13.55;;;5.80;;
58294;SDS011;45705;55.592;37.460;2022-12-26T11:59:35;10.43;;;5.63;;
58294;SDS011;45705;55.592;37.460;2022-12-26T12:02:14;14.43;;;7.60;;
58294;SDS011;45705;55.592;37.460;2022-12-26T12:04:43;10.68;;;6.10;;
58294;SDS011;45705;55.592;37.460;2022-12-26T12:17:13;13.50;;;7.60;;
58294;SDS011;45705;55.592;37.460;2022-12-26T12:47:19;12.48;;;7.35;;
58294;SDS011;45705;55.592;37.460;2022-12-26T13:00:44;20.48;;;10.00;;
58294;SDS011;45705;55.592;37.460;2022-12-26T13:06:12;21.98;;;11.65;;
58294;SDS011;45705;55.592;37.460;2022-12-26T13:08:56;18.92;;;10.93;;
58294;SDS011;45705;55.592;37.460;2022-12-26T13:11:28;18.63;;;10.63;;
58294;SDS011;45705;55.592;37.460;2022-12-26T13:14:00;17.35;;;9.40;;
58294;SDS011;45705;55.592;37.460;2022-12-26T13:17:02;17.10;;;8.95;;
58294;SDS011;45705;55.592;37.460;2022-12-26T13:19:36;15.98;;;8.75;;
58294;SDS011;45705;55.592;37.460;2022-12-26T13:22:12;14.55;;;8.20;;
58294;SDS011;45705;55.592;37.460;2022-12-26T13:24:45;10.98;;;6.28;;
58294;SDS011;45705;55.592;37.460;2022-12-26T13:27:26;11.68;;;5.72;;
58294;SDS011;45705;55.592;37.460;2022-12-26T13:29:56;8.52;;;4.70;;
58294;SDS011;45705;55.592;37.460;2022-12-26T13:32:23;8.90;;;5.28;;
58294;SDS011;45705;55.592;37.460;2022-12-26T13:34:51;8.50;;;4.20;;
58294;SDS011;45705;55.592;37.460;2022-12-26T13:40:05;8.77;;;4.20;;
58294;SDS011;45705;55.592;37.460;2022-12-26T13:45:49;6.85;;;4.38;;
58294;SDS011;45705;55.592;37.460;2022-12-26T13:53:26;10.45;;;4.55;;
58294;SDS011;45705;55.592;37.460;2022-12-26T14:04:46;10.18;;;5.55;;
58294;SDS011;45705;55.592;37.460;2022-12-26T14:15:41;10.98;;;5.28;;
58294;SDS011;45705;55.592;37.460;2022-12-26T14:34:26;5.90;;;4.18;;
58294;SDS011;45705;55.592;37.460;2022-12-26T14:42:19;7.32;;;4.15;;
58294;SDS011;45705;55.592;37.460;2022-12-26T14:45:14;7.53;;;3.63;;
58294;SDS011;45705;55.592;37.460;2022-12-26T14:47:54;5.50;;;3.75;;
58294;SDS011;45705;55.592;37.460;2022-12-26T14:53:20;4.70;;;2.78;;
58294;SDS011;45705;55.592;37.460;2022-12-26T14:55:52;6.22;;;3.95;;
58294;SDS011;45705;55.592;37.460;2022-12-26T14:58:41;8.82;;;3.83;;
58294;SDS011;45705;55.592;37.460;2022-12-26T15:09:25;6.47;;;3.13;;
58294;SDS011;45705;55.592;37.460;2022-12-26T15:12:25;8.10;;;3.60;;
58294;SDS011;45705;55.592;37.460;2022-12-26T15:20:33;8.40;;;3.67;;
58294;SDS011;45705;55.592;37.460;2022-12-26T15:40:14;4.82;;;3.17;;
58294;SDS011;45705;55.592;37.460;2022-12-26T15:50:48;8.52;;;5.55;;
58294;SDS011;45705;55.592;37.460;2022-12-26T16:04:28;8.95;;;5.70;;
58294;SDS011;45705;55.592;37.460;2022-12-26T16:07:17;18.30;;;7.85;;
58294;SDS011;45705;55.592;37.460;2022-12-26T16:09:46;12.60;;;7.13;;
58294;SDS011;45705;55.592;37.460;2022-12-26T16:17:29;13.25;;;7.72;;
58294;SDS011;45705;55.592;37.460;2022-12-26T16:19:55;12.30;;;7.15;;
58294;SDS011;45705;55.592;37.460;2022-12-26T16:25:13;20.17;;;9.85;;
58294;SDS011;45705;55.592;37.460;2022-12-26T16:27:44;22.40;;;9.85;;
58294;SDS011;45705;55.592;37.460;2022-12-26T16:30:13;20.30;;;10.52;;
58294;SDS011;45705;55.592;37.460;2022-12-26T16:32:44;20.00;;;9.50;;
58294;SDS011;45705;55.592;37.460;2022-12-26T16:35:31;19.10;;;9.57;;
58294;SDS011;45705;55.592;37.460;2022-12-26T16:37:59;24.20;;;9.68;;
58294;SDS011;45705;55.592;37.460;2022-12-26T16:40:28;17.55;;;10.48;;
58294;SDS011;45705;55.592;37.460;2022-12-26T16:45:38;22.75;;;10.80;;
58294;SDS011;45705;55.592;37.460;2022-12-26T16:48:06;23.65;;;10.68;;
58294;SDS011;45705;55.592;37.460;2022-12-26T16:50:33;23.42;;;11.30;;
58294;SDS011;45705;55.592;37.460;2022-12-26T16:53:10;14.18;;;6.72;;
58294;SDS011;45705;55.592;37.460;2022-12-26T16:58:18;15.77;;;9.30;;
58294;SDS011;45705;55.592;37.460;2022-12-26T17:01:10;13.50;;;7.22;;
58294;SDS011;45705;55.592;37.460;2022-12-26T17:03:41;14.45;;;7.57;;
58294;SDS011;45705;55.592;37.460;2022-12-26T17:06:39;15.85;;;8.95;;
58294;SDS011;45705;55.592;37.460;2022-12-26T17:09:06;17.13;;;8.85;;
58294;SDS011;45705;55.592;37.460;2022-12-26T17:11:35;15.85;;;9.13;;
58294;SDS011;45705;55.592;37.460;2022-12-26T17:14:05;12.38;;;6.90;;
58294;SDS011;45705;55.592;37.460;2022-12-26T17:16:36;13.27;;;7.25;;
58294;SDS011;45705;55.592;37.460;2022-12-26T17:19:35;10.60;;;6.45;;
58294;SDS011;45705;55.592;37.460;2022-12-26T17:25:23;11.68;;;6.38;;
58294;SDS011;45705;55.592;37.460;2022-12-26T17:30:36;9.93;;;6.05;;
58294;SDS011;45705;55.592;37.460;2022-12-26T17:33:07;13.55;;;6.93;;
58294;SDS011;45705;55.592;37.460;2022-12-26T17:35:37;14.25;;;6.32;;
58294;SDS011;45705;55.592;37.460;2022-12-26T17:38:15;6.38;;;3.63;;
58294;SDS011;45705;55.592;37.460;2022-12-26T17:40:46;10.20;;;6.15;;
58294;SDS011;45705;55.592;37.460;2022-12-26T17:45:39;9.80;;;5.28;;
58294;SDS011;45705;55.592;37.460;2022-12-26T17:48:08;7.67;;;4.53;;
58294;SDS011;45705;55.592;37.460;2022-12-26T17:50:37;10.23;;;5.17;;
58294;SDS011;45705;55.592;37.460;2022-12-26T17:56:02;10.25;;;5.00;;
58294;SDS011;45705;55.592;37.460;2022-12-26T17:58:28;7.30;;;4.05;;
58294;SDS011;45705;55.592;37.460;2022-12-26T18:00:54;5.95;;;2.92;;
58294;SDS011;45705;55.592;37.460;2022-12-26T18:03:20;6.47;;;3.53;;
58294;SDS011;45705;55.592;37.460;2022-12-26T18:05:46;9.80;;;3.83;;
58294;SDS011;45705;55.592;37.460;2022-12-26T18:10:59;5.07;;;3.45;;
58294;SDS011;45705;55.592;37.460;2022-12-26T18:13:26;6.82;;;3.50;;
58294;SDS011;45705;55.592;37.460;2022-12-26T18:15:52;5.90;;;3.25;;
58294;SDS011;45705;55.592;37.460;2022-12-26T18:18:20;6.22;;;2.92;;
58294;SDS011;45705;55.592;37.460;2022-12-26T18:20:49;6.40;;;3.05;;
58294;SDS011;45705;55.592;37.460;2022-12-26T18:23:14;5.47;;;2.75;;
58294;SDS011;45705;55.592;37.460;2022-12-26T18:25:40;6.07;;;2.70;;
58294;SDS011;45705;55.592;37.460;2022-12-26T18:28:09;4.40;;;2.55;;
58294;SDS011;45705;55.592;37.460;2022-12-26T18:30:37;3.72;;;2.30;;
58294;SDS011;45705;55.592;37.460;2022-12-26T18:33:02;5.53;;;2.83;;
58294;SDS011;45705;55.592;37.460;2022-12-26T18:35:28;2.95;;;2.00;;
58294;SDS011;45705;55.592;37.460;2022-12-26T18:37:54;3.47;;;2.38;;
58294;SDS011;45705;55.592;37.460;2022-12-26T18:40:24;4.80;;;2.45;;
58294;SDS011;45705;55.592;37.460;2022-12-26T18:42:56;5.15;;;2.90;;
58294;SDS011;45705;55.592;37.460;2022-12-26T18:45:22;10.02;;;3.20;;
58294;SDS011;45705;55.592;37.460;2022-12-26T18:47:48;3.70;;;2.50;;
58294;SDS011;45705;55.592;37.460;2022-12-26T18:50:14;4.95;;;2.60;;
58294;SDS011;45705;55.592;37.460;2022-12-26T18:52:40;6.60;;;3.00;;
58294;SDS011;45705;55.592;37.460;2022-12-26T18:55:06;10.20;;;2.92;;
58294;SDS011;45705;55.592;37.460;2022-12-26T18:57:32;5.63;;;3.00;;
58294;SDS011;45705;55.592;37.460;2022-12-26T18:59:58;5.53;;;3.03;;
58294;SDS011;45705;55.592;37.460;2022-12-26T19:02:24;8.93;;;3.05;;
58294;SDS011;45705;55.592;37.460;2022-12-26T19:04:49;6.82;;;2.88;;
58294;SDS011;45705;55.592;37.460;2022-12-26T19:07:16;7.78;;;3.45;;
58294;SDS011;45705;55.592;37.460;2022-12-26T19:09:48;9.02;;;3.70;;
58294;SDS011;45705;55.592;37.460;2022-12-26T19:12:15;7.05;;;3.47;;
58294;SDS011;45705;55.592;37.460;2022-12-26T19:14:42;6.97;;;3.53;;
58294;SDS011;45705;55.592;37.460;2022-12-26T19:17:08;4.72;;;2.97;;
58294;SDS011;45705;55.592;37.460;2022-12-26T19:19:34;4.18;;;2.53;;
58294;SDS011;45705;55.592;37.460;2022-12-26T19:22:00;7.00;;;2.75;;
58294;SDS011;45705;55.592;37.460;2022-12-26T19:24:25;6.38;;;3.22;;
58294;SDS011;45705;55.592;37.460;2022-12-26T19:26:51;5.50;;;3.33;;
58294;SDS011;45705;55.592;37.460;2022-12-26T19:29:17;6.07;;;3.28;;
58294;SDS011;45705;55.592;37.460;2022-12-26T19:31:42;9.43;;;3.78;;
58294;SDS011;45705;55.592;37.460;2022-12-26T19:34:08;4.93;;;2.83;;
58294;SDS011;45705;55.592;37.460;2022-12-26T19:36:37;8.00;;;3.08;;
58294;SDS011;45705;55.592;37.460;2022-12-26T19:39:03;8.18;;;2.83;;
58294;SDS011;45705;55.592;37.460;2022-12-26T19:41:29;4.82;;;3.58;;
58294;SDS011;45705;55.592;37.460;2022-12-26T19:43:55;8.07;;;3.60;;
58294;SDS011;45705;55.592;37.460;2022-12-26T19:46:25;6.97;;;3.60;;